createdAt,value
2023-01-12T00:02:24.299Z,15.30
2023-01-12T00:04:52.627Z,15.80
2023-01-12T00:07:21.438Z,14.30
2023-01-12T00:09:49.607Z,15.40
2023-01-12T00:12:17.791Z,14.70
2023-01-12T00:14:46.200Z,15.90
2023-01-12T00:17:17.331Z,14.80
2023-01-12T00:19:45.493Z,14.20
2023-01-12T00:22:14.182Z,13.70
2023-01-12T00:24:44.948Z,14.10
2023-01-12T00:27:16.397Z,14.70
2023-01-12T00:29:44.859Z,14.10
2023-01-12T00:32:20.404Z,13.10
2023-01-12T00:34:49.009Z,13.70
2023-01-12T00:37:17.416Z,14.10
2023-01-12T00:39:56.780Z,14.70
2023-01-12T00:42:48.747Z,13.40
2023-01-12T00:45:22.972Z,12.60
2023-01-12T00:47:51.980Z,13.30
2023-01-12T00:50:20.339Z,14.20
2023-01-12T00:52:48.720Z,13.60
2023-01-12T00:55:17.315Z,13.90
2023-01-12T00:57:46.105Z,13.40
2023-01-12T01:00:15.613Z,12.50
2023-01-12T01:02:44.007Z,11.70
2023-01-12T01:05:12.290Z,12.00
2023-01-12T01:07:40.867Z,11.90
2023-01-12T01:10:10.970Z,13.20
2023-01-12T01:12:39.380Z,11.10
2023-01-12T01:15:08.738Z,11.10
2023-01-12T01:17:37.272Z,12.20
2023-01-12T01:20:06.237Z,11.30
2023-01-12T01:22:34.351Z,12.40
2023-01-12T01:25:02.728Z,11.10
2023-01-12T01:27:31.218Z,11.50
2023-01-12T01:29:59.501Z,11.10
2023-01-12T01:32:27.685Z,12.50
2023-01-12T01:34:55.963Z,12.70
2023-01-12T01:37:24.551Z,11.70
2023-01-12T01:39:52.966Z,12.10
2023-01-12T01:42:30.357Z,10.40
2023-01-12T01:45:01.583Z,10.80
2023-01-12T01:47:39.779Z,12.20
2023-01-12T01:50:23.108Z,10.30
2023-01-12T01:52:58.574Z,10.30
2023-01-12T01:55:34.161Z,10.10
2023-01-12T01:58:17.018Z,10.80
2023-01-12T02:00:46.674Z,11.40
2023-01-12T02:03:16.631Z,11.40
2023-01-12T02:05:49.149Z,9.70
2023-01-12T02:08:23.551Z,10.00
2023-01-12T02:10:53.432Z,9.80
2023-01-12T02:13:41.559Z,11.50
2023-01-12T02:16:29.261Z,10.00
2023-01-12T02:19:06.519Z,9.90
2023-01-12T02:21:53.429Z,10.40
2023-01-12T02:24:35.726Z,10.60
2023-01-12T02:27:03.907Z,10.10
2023-01-12T02:29:35.051Z,10.20
2023-01-12T02:32:13.055Z,10.20
2023-01-12T02:35:19.521Z,11.60
2023-01-12T02:38:00.079Z,11.20
2023-01-12T02:40:41.770Z,10.00
2023-01-12T02:43:30.422Z,10.60
2023-01-12T02:46:17.937Z,10.50
2023-01-12T02:48:56.135Z,12.00
2023-01-12T02:51:39.576Z,11.50
2023-01-12T02:54:12.523Z,11.60
2023-01-12T02:56:50.878Z,12.70
2023-01-12T02:59:29.123Z,11.70
2023-01-12T03:02:03.323Z,12.20
2023-01-12T03:04:33.098Z,11.10
2023-01-12T03:07:01.284Z,10.50
2023-01-12T03:09:41.848Z,10.90
2023-01-12T03:12:19.144Z,12.10
2023-01-12T03:14:49.975Z,12.00
2023-01-12T03:17:37.200Z,11.00
2023-01-12T03:20:16.831Z,10.80
2023-01-12T03:22:47.335Z,11.90
2023-01-12T03:25:18.487Z,10.80
2023-01-12T03:27:51.878Z,11.40
2023-01-12T03:30:25.004Z,10.20
2023-01-12T03:32:53.796Z,12.50
2023-01-12T03:35:27.914Z,12.90
2023-01-12T03:38:08.171Z,9.80
2023-01-12T03:40:43.932Z,12.50
2023-01-12T03:43:21.420Z,11.60
2023-01-12T03:46:19.340Z,11.40
2023-01-12T03:49:06.484Z,12.40
2023-01-12T03:51:40.808Z,11.10
2023-01-12T03:54:11.258Z,13.50
2023-01-12T03:56:41.806Z,11.70
2023-01-12T03:59:10.355Z,12.10
2023-01-12T04:01:38.792Z,13.00
2023-01-12T04:04:07.791Z,11.50
2023-01-12T04:06:36.123Z,12.70
2023-01-12T04:09:04.407Z,12.30
2023-01-12T04:11:51.318Z,13.00
2023-01-12T04:14:19.593Z,13.20
2023-01-12T04:16:47.670Z,12.70
2023-01-12T04:19:16.166Z,12.40
2023-01-12T04:22:03.780Z,13.30
2023-01-12T04:24:32.169Z,11.50
2023-01-12T04:27:00.347Z,13.30
2023-01-12T04:29:28.729Z,13.10
2023-01-12T04:31:57.726Z,13.00
2023-01-12T04:34:26.113Z,14.60
2023-01-12T04:36:54.805Z,11.80
2023-01-12T04:39:23.291Z,12.90
2023-01-12T04:41:51.576Z,13.10
2023-01-12T04:44:20.520Z,14.80
2023-01-12T04:46:49.750Z,13.10
2023-01-12T04:49:18.265Z,12.30
2023-01-12T04:51:46.546Z,13.20
2023-01-12T04:54:14.722Z,13.80
2023-01-12T04:56:43.011Z,14.10
2023-01-12T04:59:11.815Z,14.30
2023-01-12T05:01:40.208Z,13.80
2023-01-12T05:04:08.928Z,15.10
2023-01-12T05:06:37.261Z,15.90
2023-01-12T05:09:24.803Z,15.40
2023-01-12T05:11:52.906Z,14.50
2023-01-12T05:14:21.243Z,13.60
2023-01-12T05:16:49.686Z,15.00
2023-01-12T05:19:18.125Z,13.90
2023-01-12T05:21:46.291Z,14.50
2023-01-12T05:24:14.481Z,13.80
2023-01-12T05:26:42.858Z,14.30
2023-01-12T05:29:13.905Z,12.70
2023-01-12T05:31:42.593Z,13.30
2023-01-12T05:34:10.875Z,14.70
2023-01-12T05:36:39.568Z,14.20
2023-01-12T05:39:07.951Z,14.00
2023-01-12T05:41:36.439Z,13.80
2023-01-12T05:44:04.719Z,13.70
2023-01-12T05:46:40.480Z,13.70
2023-01-12T05:49:11.319Z,13.10
2023-01-12T05:51:39.497Z,15.10
2023-01-12T05:54:07.776Z,13.50
2023-01-12T05:56:36.261Z,13.80
2023-01-12T05:59:04.866Z,15.90
2023-01-12T06:01:33.031Z,15.40
2023-01-12T06:04:02.052Z,15.50
2023-01-12T06:06:31.921Z,17.60
2023-01-12T06:09:01.772Z,16.50
2023-01-12T06:11:49.189Z,17.20
2023-01-12T06:14:17.690Z,15.20
2023-01-12T06:16:46.055Z,17.60
2023-01-12T06:19:14.246Z,15.30
2023-01-12T06:21:42.618Z,16.30
2023-01-12T06:24:11.013Z,14.30
2023-01-12T06:26:39.390Z,15.00
2023-01-12T06:29:07.774Z,15.10
2023-01-12T06:31:37.285Z,16.40
2023-01-12T06:34:08.020Z,14.60
2023-01-12T06:36:36.325Z,14.10
2023-01-12T06:39:05.479Z,14.70
2023-01-12T06:41:54.053Z,16.60
2023-01-12T06:44:22.850Z,14.80
2023-01-12T06:46:51.330Z,16.60
2023-01-12T06:49:20.033Z,14.90
2023-01-12T06:51:51.565Z,15.00
2023-01-12T06:54:20.446Z,13.30
2023-01-12T06:56:48.762Z,14.20
2023-01-12T06:59:17.552Z,13.10
2023-01-12T07:01:46.125Z,11.40
2023-01-12T07:04:14.680Z,14.10
2023-01-12T07:06:42.921Z,14.10
2023-01-12T07:09:11.397Z,13.20
2023-01-12T07:11:39.784Z,12.40
2023-01-12T07:14:09.304Z,11.90
2023-01-12T07:16:38.298Z,12.60
2023-01-12T07:19:06.673Z,12.50
2023-01-12T07:21:34.860Z,10.60
2023-01-12T07:24:03.347Z,10.50
2023-01-12T07:26:31.625Z,12.90
2023-01-12T07:28:59.918Z,13.90
2023-01-12T07:31:28.680Z,12.90
2023-01-12T07:33:57.293Z,14.30
2023-01-12T07:36:26.093Z,14.70
2023-01-12T07:38:54.572Z,14.90
2023-01-12T07:41:41.705Z,11.60
2023-01-12T07:44:10.296Z,13.40
2023-01-12T07:46:38.840Z,13.50
2023-01-12T07:49:07.153Z,12.70
2023-01-12T07:51:35.651Z,13.80
2023-01-12T07:54:03.910Z,14.10
2023-01-12T07:56:32.610Z,14.60
2023-01-12T07:59:01.976Z,14.80
2023-01-12T08:01:32.787Z,15.30
2023-01-12T08:04:01.234Z,13.60
2023-01-12T08:06:30.537Z,13.10
2023-01-12T08:08:59.539Z,12.80
2023-01-12T08:11:27.829Z,14.40
2023-01-12T08:13:57.632Z,13.00
2023-01-12T08:16:32.136Z,15.30
2023-01-12T08:19:09.963Z,13.70
2023-01-12T08:21:46.275Z,13.40
2023-01-12T08:24:24.650Z,12.90
2023-01-12T08:26:56.600Z,11.70
2023-01-12T08:29:34.320Z,12.40
2023-01-12T08:32:12.778Z,14.10
2023-01-12T08:34:47.076Z,14.60
2023-01-12T08:37:18.728Z,16.70
2023-01-12T08:39:47.756Z,14.60
2023-01-12T08:42:16.076Z,14.00
2023-01-12T08:44:45.482Z,10.90
2023-01-12T08:47:23.092Z,12.40
2023-01-12T08:49:51.258Z,11.40
2023-01-12T08:52:19.743Z,12.30
2023-01-12T08:54:48.334Z,11.20
2023-01-12T08:57:17.125Z,10.80
2023-01-12T08:59:45.652Z,10.50
2023-01-12T09:02:15.757Z,10.30
2023-01-12T09:04:45.451Z,10.10
2023-01-12T09:07:14.193Z,12.00
2023-01-12T09:09:42.330Z,9.90
2023-01-12T09:12:10.920Z,10.80
2023-01-12T09:14:39.403Z,10.60
2023-01-12T09:17:08.498Z,9.50
2023-01-12T09:19:36.679Z,10.10
2023-01-12T09:22:05.284Z,9.20
2023-01-12T09:24:33.446Z,12.10
2023-01-12T09:27:01.734Z,13.70
2023-01-12T09:29:30.217Z,10.60
2023-01-12T09:31:58.994Z,9.80
2023-01-12T09:34:27.828Z,11.30
2023-01-12T09:36:57.315Z,9.60
2023-01-12T09:39:28.924Z,10.10
2023-01-12T09:42:17.950Z,10.60
2023-01-12T09:45:09.242Z,10.10
2023-01-12T09:47:57.370Z,10.80
2023-01-12T09:50:32.308Z,9.90
2023-01-12T09:53:10.997Z,9.00
2023-01-12T09:55:52.001Z,11.90
2023-01-12T09:58:30.419Z,11.00
2023-01-12T10:01:01.596Z,13.00
2023-01-12T10:03:38.865Z,12.30
2023-01-12T10:06:14.496Z,10.30
2023-01-12T10:08:44.927Z,9.90
2023-01-12T10:11:41.256Z,12.20
2023-01-12T10:14:33.885Z,15.20
2023-01-12T10:17:25.618Z,14.00
2023-01-12T10:20:14.832Z,14.80
2023-01-12T10:22:49.086Z,14.30
2023-01-12T10:25:29.538Z,13.30
2023-01-12T10:28:00.558Z,11.80
2023-01-12T10:30:38.895Z,11.60
2023-01-12T10:33:17.283Z,11.30
2023-01-12T10:35:59.419Z,10.80
2023-01-12T10:38:31.676Z,11.70
2023-01-12T10:41:19.308Z,11.70
2023-01-12T10:44:07.926Z,13.10
2023-01-12T10:46:36.743Z,13.60
2023-01-12T10:49:19.308Z,12.00
2023-01-12T10:51:55.061Z,13.20
2023-01-12T10:54:28.434Z,13.10
2023-01-12T10:57:04.977Z,11.50
2023-01-12T10:59:35.817Z,14.40
2023-01-12T11:02:08.737Z,49.20
2023-01-12T11:04:46.926Z,21.80
2023-01-12T11:07:22.464Z,14.90
2023-01-12T11:09:50.945Z,14.00
2023-01-12T11:12:21.375Z,13.20
2023-01-12T11:15:18.265Z,11.80
2023-01-12T11:18:08.907Z,12.70
2023-01-12T11:20:43.636Z,13.60
2023-01-12T11:23:19.959Z,13.50
2023-01-12T11:25:51.168Z,13.10
2023-01-12T11:28:26.382Z,13.80
2023-01-12T11:31:17.081Z,14.80
2023-01-12T11:33:50.689Z,12.20
2023-01-12T11:38:53.903Z,12.70
2023-01-12T11:41:40.703Z,12.00
2023-01-12T11:44:31.109Z,13.70
2023-01-12T11:47:11.239Z,12.30
2023-01-12T11:49:47.918Z,10.10
2023-01-12T11:52:17.016Z,12.30
2023-01-12T11:54:45.301Z,10.20
2023-01-12T11:57:28.908Z,11.20
2023-01-12T12:00:12.458Z,12.00
2023-01-12T12:03:03.491Z,12.30
2023-01-12T12:06:00.123Z,12.70
2023-01-12T12:08:45.767Z,13.30
2023-01-12T12:11:19.883Z,14.00
2023-01-12T12:13:51.281Z,14.00
2023-01-12T12:16:42.336Z,14.80
2023-01-12T12:19:26.833Z,34.00
2023-01-12T12:22:20.883Z,14.30
2023-01-12T12:24:58.041Z,14.40
2023-01-12T12:27:32.265Z,14.70
2023-01-12T12:30:07.570Z,16.60
2023-01-12T12:32:49.190Z,16.60
2023-01-12T12:35:34.148Z,15.00
2023-01-12T12:38:11.340Z,14.00
2023-01-12T12:41:14.003Z,16.70
2023-01-12T12:44:01.115Z,12.50
2023-01-12T12:46:57.440Z,13.10
2023-01-12T12:49:32.915Z,12.00
2023-01-12T12:52:02.353Z,13.90
2023-01-12T12:54:31.868Z,13.00
2023-01-12T12:57:00.476Z,11.80
2023-01-12T12:59:31.846Z,13.60
2023-01-12T13:02:02.223Z,12.30
2023-01-12T13:04:43.242Z,12.60
2023-01-12T13:07:16.848Z,13.10
2023-01-12T13:09:46.773Z,12.80
2023-01-12T13:12:33.575Z,13.60
2023-01-12T13:15:20.275Z,14.30
2023-01-12T13:17:52.892Z,14.00
2023-01-12T13:20:36.446Z,15.20
2023-01-12T13:23:44.899Z,15.10
2023-01-12T13:26:41.249Z,15.50
2023-01-12T13:29:25.059Z,14.00
2023-01-12T13:32:19.248Z,13.20
2023-01-12T13:34:47.502Z,13.30
2023-01-12T13:37:29.894Z,12.30
2023-01-12T13:40:16.825Z,13.50
2023-01-12T13:43:04.852Z,15.00
2023-01-12T13:45:34.002Z,14.40
2023-01-12T13:48:07.376Z,14.60
2023-01-12T13:50:36.749Z,13.90
2023-01-12T13:53:04.928Z,14.60
2023-01-12T13:55:36.184Z,16.50
2023-01-12T13:58:15.548Z,17.50
2023-01-12T14:00:54.583Z,18.70
2023-01-12T14:04:09.386Z,16.70
2023-01-12T14:07:12.255Z,15.80
2023-01-12T14:10:23.332Z,17.10
2023-01-12T14:13:18.814Z,16.10
2023-01-12T14:16:06.184Z,18.80
2023-01-12T14:18:45.997Z,20.60
2023-01-12T14:21:27.468Z,17.50
2023-01-12T14:24:16.628Z,17.70
2023-01-12T14:26:44.805Z,14.50
2023-01-12T14:29:13.451Z,13.90
2023-01-12T14:31:50.538Z,16.00
2023-01-12T14:34:35.919Z,15.10
2023-01-12T14:37:22.135Z,14.20
2023-01-12T14:39:50.632Z,14.70
2023-01-12T14:42:39.372Z,17.40
2023-01-12T14:45:46.849Z,16.00
2023-01-12T14:48:31.100Z,16.00
2023-01-12T14:51:24.040Z,18.60
2023-01-12T14:54:21.395Z,16.90
2023-01-12T14:56:59.900Z,16.70
2023-01-12T14:59:35.186Z,19.50
2023-01-12T15:02:12.945Z,23.40
2023-01-12T15:04:57.090Z,20.50
2023-01-12T15:07:29.663Z,21.80
2023-01-12T15:10:04.190Z,21.70
2023-01-12T15:12:32.367Z,22.60
2023-01-12T15:15:21.318Z,20.00
2023-01-12T15:18:10.905Z,21.30
2023-01-12T15:21:01.068Z,20.10
2023-01-12T15:23:51.471Z,20.40
2023-01-12T15:26:20.734Z,28.20
2023-01-12T15:28:49.797Z,24.30
2023-01-12T15:31:27.406Z,26.60
2023-01-12T15:33:57.324Z,28.20
2023-01-12T15:36:25.662Z,27.10
2023-01-12T15:38:54.264Z,29.90
2023-01-12T15:41:45.881Z,24.50
2023-01-12T15:44:16.870Z,21.60
2023-01-12T15:46:45.394Z,21.80
2023-01-12T15:49:14.789Z,19.50
2023-01-12T15:51:50.058Z,18.10
2023-01-12T15:54:20.473Z,20.00
2023-01-12T15:56:49.425Z,20.60
2023-01-12T15:59:17.868Z,20.00
2023-01-12T16:01:50.080Z,18.80
2023-01-12T16:04:42.180Z,19.50
2023-01-12T16:07:10.957Z,20.80
2023-01-12T16:09:41.271Z,19.90
2023-01-12T16:12:10.602Z,20.70
2023-01-12T16:14:38.862Z,21.00
2023-01-12T16:17:07.246Z,20.30
2023-01-12T16:19:41.373Z,20.60
2023-01-12T16:22:28.105Z,20.80
2023-01-12T16:24:56.995Z,20.50
2023-01-12T16:27:27.081Z,20.90
2023-01-12T16:29:56.798Z,20.50
2023-01-12T16:32:26.987Z,21.40
2023-01-12T16:34:56.019Z,20.10
2023-01-12T16:37:27.629Z,19.20
2023-01-12T16:39:56.168Z,17.20
2023-01-12T16:42:24.552Z,16.60
2023-01-12T16:44:53.160Z,16.10
2023-01-12T16:47:21.844Z,18.00
2023-01-12T16:49:51.420Z,18.50
2023-01-12T16:52:21.983Z,16.40
2023-01-12T16:54:50.174Z,17.10
2023-01-12T16:57:19.108Z,13.90
2023-01-12T16:59:47.542Z,14.70
2023-01-12T17:02:18.077Z,14.30
2023-01-12T17:04:49.224Z,13.70
2023-01-12T17:07:18.116Z,14.00
2023-01-12T17:09:46.833Z,14.80
2023-01-12T17:12:15.616Z,14.70
2023-01-12T17:14:44.093Z,15.60
2023-01-12T17:17:13.042Z,16.80
2023-01-12T17:19:44.937Z,18.80
2023-01-12T17:22:13.650Z,18.50
2023-01-12T17:24:42.355Z,17.40
2023-01-12T17:27:10.930Z,17.10
2023-01-12T17:29:39.905Z,16.70
2023-01-12T17:32:08.933Z,17.40
2023-01-12T17:34:39.452Z,17.80
2023-01-12T17:37:08.861Z,17.10
2023-01-12T17:39:48.521Z,20.00
2023-01-12T17:42:37.353Z,18.60
2023-01-12T17:45:07.328Z,16.60
2023-01-12T17:47:35.834Z,19.90
2023-01-12T17:50:04.427Z,19.00
2023-01-12T17:52:32.636Z,20.40
2023-01-12T17:55:00.920Z,20.60
2023-01-12T17:57:30.133Z,20.10
2023-01-12T17:59:58.840Z,19.50
2023-01-12T18:02:27.397Z,21.90
2023-01-12T18:04:56.813Z,23.10
2023-01-12T18:07:25.091Z,25.20
2023-01-12T18:09:53.480Z,24.00
2023-01-12T18:12:23.187Z,26.20
2023-01-12T18:14:51.368Z,28.50
2023-01-12T18:17:19.758Z,30.40
2023-01-12T18:19:48.053Z,28.60
2023-01-12T18:22:16.212Z,28.80
2023-01-12T18:24:44.401Z,27.30
2023-01-12T18:27:12.574Z,26.70
2023-01-12T18:29:41.697Z,20.40
2023-01-12T18:32:10.264Z,21.20
2023-01-12T18:34:41.921Z,22.50
2023-01-12T18:37:12.785Z,19.00
2023-01-12T18:39:44.230Z,17.60
2023-01-12T18:42:31.130Z,17.80
2023-01-12T18:45:25.297Z,17.80
2023-01-12T18:48:12.319Z,20.20
2023-01-12T18:50:59.728Z,17.60
2023-01-12T18:53:31.893Z,16.80
2023-01-12T18:56:03.211Z,18.20
2023-01-12T18:58:34.314Z,16.50
2023-01-12T19:01:18.632Z,15.40
2023-01-12T19:03:47.434Z,14.70
2023-01-12T19:06:23.856Z,16.60
2023-01-12T19:09:11.841Z,16.30
2023-01-12T19:11:41.804Z,15.10
2023-01-12T19:14:28.976Z,16.10
2023-01-12T19:17:15.874Z,13.90
2023-01-12T19:19:44.261Z,15.40
2023-01-12T19:22:31.068Z,15.00
2023-01-12T19:25:17.871Z,17.30
2023-01-12T19:28:05.699Z,16.40
2023-01-12T19:30:36.333Z,18.30
2023-01-12T19:33:09.194Z,21.60
2023-01-12T19:35:37.917Z,22.60
2023-01-12T19:38:06.819Z,22.60
2023-01-12T19:40:45.632Z,21.80
2023-01-12T19:43:29.272Z,23.80
2023-01-12T19:46:00.722Z,22.60
2023-01-12T19:48:29.625Z,25.70
2023-01-12T19:51:10.422Z,24.30
2023-01-12T19:53:40.402Z,25.40
2023-01-12T19:56:10.670Z,26.10
2023-01-12T19:58:39.432Z,27.80
2023-01-12T20:01:08.280Z,27.00
2023-01-12T20:03:39.907Z,28.90
2023-01-12T20:06:08.798Z,27.30
2023-01-12T20:08:37.156Z,27.80
2023-01-12T20:11:06.260Z,29.60
2023-01-12T20:13:35.788Z,29.90
2023-01-12T20:16:08.917Z,27.30
2023-01-12T20:18:37.713Z,29.60
2023-01-12T20:21:11.680Z,24.40
2023-01-12T20:23:40.058Z,25.80
2023-01-12T20:26:11.457Z,25.30
2023-01-12T20:28:40.501Z,23.40
2023-01-12T20:31:11.470Z,23.80
2023-01-12T20:33:40.597Z,23.90
2023-01-12T20:36:11.543Z,22.10
2023-01-12T20:38:41.191Z,23.30
2023-01-12T20:41:10.514Z,23.60
2023-01-12T20:43:39.113Z,22.60
2023-01-12T20:46:09.851Z,23.00
2023-01-12T20:48:41.516Z,22.20
2023-01-12T20:51:11.899Z,22.50
2023-01-12T20:53:40.310Z,21.80
2023-01-12T20:56:09.209Z,23.10
2023-01-12T20:58:37.803Z,21.00
2023-01-12T21:01:15.360Z,20.20
2023-01-12T21:03:44.370Z,20.10
2023-01-12T21:06:15.847Z,23.30
2023-01-12T21:08:45.837Z,20.70
2023-01-12T21:11:17.443Z,21.00
2023-01-12T21:13:46.397Z,19.70
2023-01-12T21:16:18.212Z,20.60
2023-01-12T21:18:47.048Z,19.60
2023-01-12T21:21:15.357Z,22.10
2023-01-12T21:23:43.748Z,23.80
2023-01-12T21:26:12.329Z,21.80
2023-01-12T21:28:41.190Z,20.80
2023-01-12T21:31:12.711Z,21.90
2023-01-12T21:33:41.586Z,20.80
2023-01-12T21:36:12.788Z,20.70
2023-01-12T21:38:41.344Z,21.30
2023-01-12T21:41:11.652Z,22.80
2023-01-12T21:43:40.129Z,21.50
2023-01-12T21:46:11.973Z,20.10
2023-01-12T21:48:40.277Z,21.00
2023-01-12T21:51:12.046Z,20.40
2023-01-12T21:53:42.126Z,19.70
2023-01-12T21:56:13.003Z,20.80
2023-01-12T21:58:41.795Z,20.70
2023-01-12T22:01:12.709Z,21.20
2023-01-12T22:03:41.723Z,21.40
2023-01-12T22:06:12.498Z,21.70
2023-01-12T22:08:42.046Z,22.50
2023-01-12T22:11:15.533Z,21.60
2023-01-12T22:13:43.984Z,19.70
2023-01-12T22:16:14.859Z,20.40
2023-01-12T22:18:46.607Z,19.20
2023-01-12T22:21:16.513Z,19.20
2023-01-12T22:23:45.090Z,19.70
2023-01-12T22:26:15.526Z,20.00
2023-01-12T22:28:45.560Z,17.90
2023-01-12T22:31:20.582Z,16.60
2023-01-12T22:34:06.769Z,16.70
2023-01-12T22:36:43.066Z,16.30
2023-01-12T22:39:13.321Z,15.10
2023-01-12T22:41:42.149Z,14.30
2023-01-12T22:44:11.149Z,14.90
2023-01-12T22:46:41.172Z,14.10
2023-01-12T22:49:09.361Z,13.50
2023-01-12T22:51:39.380Z,12.00
2023-01-12T22:54:07.558Z,14.40
2023-01-12T22:56:39.111Z,13.30
2023-01-12T22:59:10.005Z,13.20
2023-01-12T23:01:38.945Z,12.60
2023-01-12T23:04:11.433Z,14.20
2023-01-12T23:06:41.029Z,13.00
2023-01-12T23:09:11.806Z,14.50
2023-01-12T23:11:40.499Z,14.10
2023-01-12T23:14:09.060Z,13.60
2023-01-12T23:16:37.337Z,12.20
2023-01-12T23:19:05.527Z,13.30
2023-01-12T23:21:35.687Z,11.80
2023-01-12T23:24:04.033Z,13.10
2023-01-12T23:26:33.090Z,11.00
2023-01-12T23:29:03.415Z,12.10
2023-01-12T23:31:33.651Z,12.50
2023-01-12T23:34:02.952Z,13.20
2023-01-12T23:36:31.699Z,11.90
2023-01-12T23:39:03.145Z,12.70
2023-01-12T23:41:34.171Z,12.10
2023-01-12T23:44:05.431Z,11.30
2023-01-12T23:46:37.241Z,12.20
2023-01-12T23:49:06.078Z,12.00
2023-01-12T23:51:36.411Z,12.70
2023-01-12T23:54:05.064Z,14.90
2023-01-12T23:56:34.746Z,12.00
2023-01-12T23:59:03.304Z,13.30
